Morell, Canada
Current Conditions -  °F | °C
As of 9:00 AM on Thursday 23 Oct 2014 (Local Time) from CYYG Reporting Station
Broken Clouds Broken Clouds  
Wind Chill: 50°   Ceiling: 25000
Heat Index: 50°   Visibility: 15mi
Dew Point: 45°   Wind: 15mph
Humidity: 82%   Direction: 60°ENE
Pressure: 30.2"   Gusts: 23mph
Location:  46.42°N, 62.7°W
Report Text: CYYG 231200Z 06013G20KT 15SM FEW020 SCT075 BKN250 10/07 A3020 RMK SC1AC4CI3 SC TR SLP228
Loading
Personal Weather Stations






























Interactive Weather Map
Tropical Storm Tracking
New forecast layout! Learn more

10-Day Weather Forecast

Advertisements
Track Severe Weather on mobile